Time;durP1;ratioP1;P1;durP2;ratioP2;P2;SDS_P1;SDS_P2;PMS_P1;PMS_P2;Temp;Humidity;BMP_temperature;BMP_pressure;BME280_temperature;BME280_humidity;BME280_pressure;Samples;Min_cycle;Max_cycle;Signal;HPM_P1;HPM_P2
2022/12/07 00:01:35;;;;;;;6.63;2.30;;;3.20;99.90;;;;;;5066523;28;20643;-80
2022/12/07 00:04:06;;;;;;;6.80;2.75;;;3.20;99.90;;;;;;5093825;28;20355;-79
2022/12/07 00:06:35;;;;;;;5.25;2.38;;;3.10;99.90;;;;;;5092977;28;20044;-80
2022/12/07 00:09:00;;;;;;;6.22;2.10;;;3.10;99.90;;;;;;5071753;28;20040;-80
2022/12/07 00:11:26;;;;;;;6.20;2.10;;;3.10;99.90;;;;;;5090338;28;20042;-78
2022/12/07 00:13:55;;;;;;;5.22;1.90;;;3.00;99.90;;;;;;5090326;28;20040;-79
2022/12/07 00:16:23;;;;;;;11.90;2.80;;;3.10;99.90;;;;;;5078778;28;20649;-80
2022/12/07 00:18:49;;;;;;;;;;;3.10;99.90;;;;;;5105166;28;20493;-80
2022/12/07 00:21:19;;;;;;;5.97;2.30;;;3.00;99.90;;;;;;5091066;28;19925;-80
2022/12/07 00:23:46;;;;;;;6.40;2.03;;;2.90;99.90;;;;;;5082081;28;20036;-80
2022/12/07 00:26:13;;;;;;;5.13;2.15;;;;;;;;;;5086113;28;20410;-80
2022/12/07 00:28:39;;;;;;;7.80;2.03;;;2.90;99.90;;;;;;5094057;28;20503;-81
2022/12/07 00:31:10;;;;;;;4.65;1.70;;;2.90;99.90;;;;;;5066382;28;20055;-81
2022/12/07 00:33:36;;;;;;;6.18;2.20;;;2.80;99.90;;;;;;5102192;28;20044;-81
2022/12/07 00:36:09;;;;;;;7.63;2.00;;;2.90;99.90;;;;;;5106443;28;20040;-82
2022/12/07 00:38:37;;;;;;;5.57;1.73;;;2.80;99.90;;;;;;5107949;28;20051;-82
2022/12/07 00:41:06;;;;;;;5.78;2.03;;;2.80;99.90;;;;;;5104919;28;20040;-82
2022/12/07 00:43:32;;;;;;;6.05;2.10;;;2.80;99.90;;;;;;5105071;28;20066;-82
2022/12/07 00:45:58;;;;;;;7.05;1.83;;;2.80;99.90;;;;;;5078652;28;20051;-81
2022/12/07 00:48:24;;;;;;;5.43;1.70;;;2.80;99.90;;;;;;5090352;28;20087;-82
2022/12/07 00:50:50;;;;;;;5.32;1.70;;;2.80;99.90;;;;;;5091444;28;20036;-82
2022/12/07 00:53:16;;;;;;;8.10;1.60;;;2.70;99.90;;;;;;5091611;28;20048;-82
2022/12/07 00:55:42;;;;;;;6.78;1.65;;;2.90;99.90;;;;;;5072142;28;20481;-81
2022/12/07 00:58:08;;;;;;;7.40;1.60;;;2.70;99.90;;;;;;5087234;28;20085;-81
2022/12/07 01:00:37;;;;;;;5.45;1.80;;;2.70;99.90;;;;;;5095562;28;20040;-81
2022/12/07 01:03:03;;;;;;;4.63;1.65;;;2.80;99.90;;;;;;5074966;28;20331;-82
2022/12/07 01:05:29;;;;;;;9.32;2.22;;;2.80;99.90;;;;;;5057496;28;20092;-81
2022/12/07 01:07:54;;;;;;;9.55;2.25;;;2.90;99.90;;;;;;5095453;28;20251;-82
2022/12/07 01:10:20;;;;;;;6.70;1.92;;;2.90;99.90;;;;;;5057670;28;20572;-82
2022/12/07 01:12:48;;;;;;;7.85;1.60;;;3.00;99.90;;;;;;5075572;28;20043;-82
2022/12/07 01:15:14;;;;;;;6.82;1.73;;;3.00;99.90;;;;;;5086412;28;20135;-82
2022/12/07 01:17:40;;;;;;;9.05;2.05;;;2.90;99.90;;;;;;5088206;28;20079;-82
2022/12/07 01:20:06;;;;;;;8.82;2.15;;;2.90;99.90;;;;;;5087592;28;20501;-82
2022/12/07 01:22:37;;;;;;;12.38;2.15;;;2.80;99.90;;;;;;5069428;28;20474;-82
2022/12/07 01:25:03;;;;;;;4.90;1.90;;;2.80;99.90;;;;;;5068167;28;20056;-82
2022/12/07 01:27:29;;;;;;;9.40;1.85;;;2.90;99.90;;;;;;5092724;28;20052;-80
2022/12/07 01:29:54;;;;;;;8.77;1.83;;;2.90;99.90;;;;;;5082149;28;20069;-81
2022/12/07 01:32:20;;;;;;;9.10;1.88;;;2.90;99.90;;;;;;5098111;28;20047;-81
2022/12/07 01:34:48;;;;;;;7.10;2.00;;;2.90;99.90;;;;;;5072242;28;20044;-81
2022/12/07 01:37:13;;;;;;;8.48;1.65;;;2.90;99.90;;;;;;5065777;28;20036;-81
2022/12/07 01:39:39;;;;;;;12.75;1.98;;;3.00;99.90;;;;;;5085910;28;20048;-80
2022/12/07 01:42:05;;;;;;;5.97;1.80;;;2.90;99.90;;;;;;5086596;28;20047;-80
2022/12/07 01:44:32;;;;;;;9.85;2.05;;;3.00;99.90;;;;;;5049179;28;1064215;-80
2022/12/07 01:47:03;;;;;;;5.78;2.20;;;3.00;99.90;;;;;;5096554;28;20059;-80
2022/12/07 01:49:45;;;;;;;10.18;2.00;;;3.00;99.90;;;;;;5075377;28;20444;-81
2022/12/07 01:52:20;;;;;;;8.35;1.70;;;3.00;99.90;;;;;;5090442;28;20047;-81
2022/12/07 01:54:48;;;;;;;7.63;1.73;;;3.00;99.90;;;;;;5086109;28;20044;-81
2022/12/07 01:57:15;;;;;;;9.13;1.88;;;3.00;99.90;;;;;;5088921;28;20057;-81
2022/12/07 01:59:43;;;;;;;9.38;1.83;;;3.10;99.90;;;;;;5092136;28;20051;-81
2022/12/07 02:02:17;;;;;;;9.40;2.00;;;3.10;99.90;;;;;;5094453;28;20048;-81
2022/12/07 02:04:43;;;;;;;9.05;1.83;;;3.10;99.90;;;;;;5090304;28;20040;-80
2022/12/07 02:07:09;;;;;;;4.35;1.55;;;3.10;99.90;;;;;;5087611;28;20045;-81
2022/12/07 02:09:35;;;;;;;9.15;2.50;;;3.00;99.90;;;;;;5086972;28;20033;-81
2022/12/07 02:12:01;;;;;;;9.13;2.22;;;3.10;99.90;;;;;;5087979;28;20490;-80
2022/12/07 02:14:27;;;;;;;7.13;1.70;;;3.20;99.90;;;;;;5086343;28;20048;-80
2022/12/07 02:17:14;;;;;;;8.60;1.50;;;3.20;99.90;;;;;;5071512;28;20130;-80
2022/12/07 02:20:03;;;;;;;10.48;1.85;;;3.20;99.90;;;;;;5090291;28;20093;-80
2022/12/07 02:22:43;;;;;;;6.88;1.58;;;3.20;99.90;;;;;;5069512;28;20114;-81
2022/12/07 02:25:27;;;;;;;9.10;1.90;;;3.20;99.90;;;;;;5087558;28;20041;-80
2022/12/07 02:28:23;;;;;;;7.38;1.60;;;3.20;99.90;;;;;;5065298;28;20052;-81
2022/12/07 02:30:52;;;;;;;5.55;1.77;;;3.30;99.90;;;;;;5089436;28;20036;-79
2022/12/07 02:33:32;;;;;;;10.05;1.63;;;3.20;99.90;;;;;;5088952;28;20074;-80
2022/12/07 02:36:30;;;;;;;6.35;1.55;;;3.30;99.90;;;;;;5069373;28;20052;-79
2022/12/07 02:39:04;;;;;;;4.93;1.50;;;3.20;99.90;;;;;;5081248;28;20040;-79
2022/12/07 02:41:35;;;;;;;12.70;2.10;;;3.10;99.90;;;;;;5089549;28;20055;-80
2022/12/07 02:44:08;;;;;;;7.88;1.65;;;3.10;99.90;;;;;;5081042;28;20095;-80
2022/12/07 02:46:39;;;;;;;8.63;1.70;;;3.00;99.90;;;;;;5102277;28;20045;-81
2022/12/07 02:49:37;;;;;;;8.77;1.73;;;3.00;99.90;;;;;;5062115;28;20044;-79
2022/12/07 02:52:03;;;;;;;7.43;1.55;;;2.90;99.90;;;;;;5087157;28;20516;-79
2022/12/07 02:54:29;;;;;;;8.77;1.60;;;2.80;99.90;;;;;;5072713;28;20040;-80
2022/12/07 02:57:18;;;;;;;8.75;1.67;;;2.70;99.90;;;;;;5096170;28;20048;-80
2022/12/07 03:00:10;;;;;;;6.10;1.50;;;2.70;99.90;;;;;;5096742;28;20061;-82
2022/12/07 03:02:45;;;;;;;6.30;1.40;;;2.50;99.90;;;;;;5105908;28;20048;-81
2022/12/07 03:05:39;;;;;;;7.00;1.42;;;2.50;99.90;;;;;;5070755;28;20071;-82
2022/12/07 03:08:19;;;;;;;6.60;1.40;;;2.50;99.90;;;;;;5089639;28;20052;-81
2022/12/07 03:11:03;;;;;;;6.15;1.80;;;2.50;99.90;;;;;;5084027;28;20375;-81
2022/12/07 03:13:39;;;;;;;8.57;1.80;;;2.50;99.90;;;;;;5053115;28;20371;-81
2022/12/07 03:16:15;;;;;;;6.85;1.60;;;2.50;99.90;;;;;;5086522;28;20036;-81
2022/12/07 03:19:06;;;;;;;10.57;1.70;;;2.60;99.90;;;;;;5084638;28;20048;-81
2022/12/07 03:21:39;;;;;;;8.85;1.70;;;2.60;99.90;;;;;;5072515;28;20081;-81
2022/12/07 03:24:11;;;;;;;9.75;1.50;;;2.70;99.90;;;;;;5069335;28;20060;-81
2022/12/07 03:26:44;;;;;;;10.00;1.55;;;2.70;99.90;;;;;;5095219;28;20100;-81
2022/12/07 03:29:19;;;;;;;11.85;1.83;;;2.70;99.90;;;;;;5094592;28;20063;-81
2022/12/07 03:31:51;;;;;;;11.93;1.98;;;2.80;99.90;;;;;;5088116;28;20100;-81
2022/12/07 03:34:20;;;;;;;9.48;1.63;;;2.90;99.90;;;;;;5049846;28;20067;-81
2022/12/07 03:37:18;;;;;;;9.05;1.30;;;2.90;99.90;;;;;;5092269;28;20067;-80
2022/12/07 03:40:06;;;;;;;6.65;1.60;;;2.90;99.90;;;;;;5082067;28;20061;-81
2022/12/07 03:42:33;;;;;;;10.65;1.70;;;2.90;99.90;;;;;;5068832;28;20075;-81
2022/12/07 03:45:01;;;;;;;8.93;1.25;;;2.80;99.90;;;;;;5085611;28;20686;-81
2022/12/07 03:47:37;;;;;;;;;;;2.70;99.90;;;;;;5067799;28;20078;-81
2022/12/07 03:50:13;;;;;;;6.97;1.80;;;2.70;99.90;;;;;;5086665;28;19984;-81
2022/12/07 03:52:45;;;;;;;8.93;1.20;;;2.60;99.90;;;;;;5085343;28;20045;-81
2022/12/07 03:55:31;;;;;;;6.82;1.40;;;2.70;99.90;;;;;;5077936;28;20051;-82
2022/12/07 03:58:02;;;;;;;5.93;1.30;;;2.90;99.90;;;;;;5085243;28;20052;-81
2022/12/07 04:00:28;;;;;;;10.10;1.30;;;2.70;99.90;;;;;;5074933;28;20044;-82
2022/12/07 04:02:55;;;;;;;4.50;1.30;;;2.70;99.90;;;;;;5074283;28;20046;-80
2022/12/07 04:05:21;;;;;;;10.02;2.28;;;2.70;99.90;;;;;;5102277;28;20033;-80
2022/12/07 04:07:46;;;;;;;9.57;1.38;;;2.80;99.90;;;;;;5074641;28;21180;-81
2022/12/07 04:10:13;;;;;;;7.93;1.30;;;2.80;99.90;;;;;;5088582;28;20056;-81
2022/12/07 04:12:38;;;;;;;9.85;1.48;;;2.80;99.90;;;;;;5068056;28;20135;-81
2022/12/07 04:15:05;;;;;;;8.52;1.58;;;2.70;99.90;;;;;;5085849;28;20122;-81
2022/12/07 04:17:31;;;;;;;14.00;1.50;;;2.70;99.90;;;;;;5067896;28;20041;-81
2022/12/07 04:19:56;;;;;;;7.75;1.42;;;2.60;99.90;;;;;;5068578;28;20448;-81
2022/12/07 04:22:22;;;;;;;6.40;1.20;;;2.60;99.90;;;;;;5071334;28;20070;-81
2022/12/07 04:24:48;;;;;;;6.40;1.25;;;2.50;99.90;;;;;;5076078;28;21018;-81
2022/12/07 04:27:13;;;;;;;10.95;1.98;;;2.40;99.90;;;;;;5063992;28;20918;-82
2022/12/07 04:29:39;;;;;;;11.57;1.45;;;2.30;99.90;;;;;;5082236;28;20041;-83
2022/12/07 04:32:05;;;;;;;4.93;1.30;;;2.20;99.90;;;;;;5052846;28;20036;-83
2022/12/07 04:34:31;;;;;;;7.28;1.20;;;2.20;99.90;;;;;;5068019;28;20041;-82
2022/12/07 04:36:56;;;;;;;3.53;0.98;;;2.10;99.90;;;;;;5070497;28;20494;-81
2022/12/07 04:39:25;;;;;;;7.70;1.50;;;2.10;99.90;;;;;;5085855;28;20486;-81
2022/12/07 04:41:51;;;;;;;10.77;1.40;;;2.00;99.90;;;;;;5090758;28;20043;-81
2022/12/07 04:44:17;;;;;;;6.00;1.17;;;2.00;99.90;;;;;;5072086;28;20048;-81
2022/12/07 04:46:43;;;;;;;11.98;1.63;;;2.00;99.90;;;;;;5066472;28;20430;-81
2022/12/07 04:49:10;;;;;;;6.05;1.00;;;1.90;99.90;;;;;;5085895;28;20067;-81
2022/12/07 04:51:36;;;;;;;5.30;1.10;;;1.90;99.90;;;;;;5065519;28;20051;-81
2022/12/07 04:54:01;;;;;;;6.00;1.00;;;1.90;99.90;;;;;;5085053;28;20508;-81
2022/12/07 04:56:27;;;;;;;7.80;1.50;;;1.90;99.90;;;;;;5065896;28;20052;-81
2022/12/07 04:58:54;;;;;;;4.78;1.30;;;1.90;99.90;;;;;;5067096;28;20055;-81
2022/12/07 05:01:21;;;;;;;7.97;0.98;;;1.80;99.90;;;;;;5067116;28;20050;-81
2022/12/07 05:03:47;;;;;;;10.32;1.20;;;1.80;99.90;;;;;;5078089;28;20497;-81
2022/12/07 05:06:12;;;;;;;10.82;1.00;;;1.80;99.90;;;;;;5091007;28;20271;-81
2022/12/07 05:08:38;;;;;;;7.35;1.27;;;1.80;99.90;;;;;;5101880;28;20165;-81
2022/12/07 05:11:05;;;;;;;6.88;1.00;;;1.90;99.90;;;;;;5053350;28;20040;-81
2022/12/07 05:13:32;;;;;;;5.38;1.08;;;2.00;99.90;;;;;;5049825;28;20043;-80
2022/12/07 05:15:58;;;;;;;7.47;1.35;;;2.10;99.90;;;;;;5090330;28;20068;-80
2022/12/07 05:18:23;;;;;;;8.57;1.20;;;2.10;99.90;;;;;;5097159;28;20093;-80
2022/12/07 05:20:50;;;;;;;8.93;1.20;;;2.20;99.90;;;;;;5095726;28;20087;-80
2022/12/07 05:23:17;;;;;;;3.63;1.23;;;2.30;99.90;;;;;;5096893;28;20048;-79
2022/12/07 05:25:43;;;;;;;11.70;1.73;;;2.30;99.90;;;;;;5093432;28;20039;-79
2022/12/07 05:28:08;;;;;;;12.20;1.50;;;2.30;99.90;;;;;;5094097;28;20040;-79
2022/12/07 05:30:34;;;;;;;9.85;1.13;;;2.40;99.90;;;;;;5089861;28;20397;-79
2022/12/07 05:33:00;;;;;;;3.85;1.00;;;2.40;99.90;;;;;;5085687;28;20115;-79
2022/12/07 05:35:26;;;;;;;10.10;1.50;;;2.40;99.90;;;;;;5093032;28;20071;-80
2022/12/07 05:37:51;;;;;;;5.45;1.00;;;2.30;99.90;;;;;;5073203;28;20535;-79
2022/12/07 05:40:18;;;;;;;7.43;1.08;;;2.30;99.90;;;;;;5089481;28;20555;-79
2022/12/07 05:42:44;;;;;;;6.15;1.20;;;2.30;99.90;;;;;;5096495;28;20402;-79
2022/12/07 05:45:10;;;;;;;9.57;1.35;;;2.30;99.90;;;;;;5092715;28;20059;-79
2022/12/07 05:47:36;;;;;;;8.90;1.15;;;2.30;99.90;;;;;;5095740;28;20044;-79
2022/12/07 05:50:04;;;;;;;9.00;1.27;;;2.30;99.90;;;;;;5080132;28;20044;-80
2022/12/07 05:52:30;;;;;;;10.60;1.42;;;2.30;99.90;;;;;;5089253;28;20048;-80
2022/12/07 05:54:55;;;;;;;8.45;1.48;;;2.30;99.90;;;;;;5096534;28;20036;-80
2022/12/07 05:57:24;;;;;;;9.32;1.90;;;2.20;99.90;;;;;;5082899;28;20044;-80
2022/12/07 05:59:50;;;;;;;6.93;1.23;;;2.20;99.90;;;;;;5066235;28;20127;-80
2022/12/07 06:02:16;;;;;;;8.63;1.73;;;2.10;99.90;;;;;;5065035;28;20123;-80
2022/12/07 06:04:44;;;;;;;7.60;1.52;;;2.10;99.90;;;;;;5079483;28;20051;-80
2022/12/07 06:07:10;;;;;;;;;;;2.20;99.90;;;;;;5077657;28;20402;-80
2022/12/07 06:09:36;;;;;;;6.15;1.20;;;2.10;99.90;;;;;;5081370;28;19928;-80
2022/12/07 06:14:47;;;;;;;6.63;1.40;;;2.20;99.90;;;;;;5082015;28;20045;-80
2022/12/07 06:17:13;;;;;;;9.20;1.42;;;2.10;99.90;;;;;;5100805;28;20044;-79
2022/12/07 06:19:38;;;;;;;12.65;1.90;;;2.10;99.90;;;;;;5102871;28;20713;-80
2022/12/07 06:22:05;;;;;;;6.70;2.00;;;2.20;99.90;;;;;;5103324;28;20036;-79
2022/12/07 06:24:32;;;;;;;8.57;1.60;;;2.20;99.90;;;;;;5073261;28;20137;-80
2022/12/07 06:26:58;;;;;;;7.40;1.67;;;2.20;99.90;;;;;;5100475;28;20041;-80
2022/12/07 06:29:24;;;;;;;12.38;1.73;;;2.20;99.90;;;;;;5060994;28;20055;-79
2022/12/07 06:31:49;;;;;;;8.98;1.85;;;2.10;99.90;;;;;;5100886;28;20036;-80
2022/12/07 06:34:18;;;;;;;6.03;1.15;;;2.10;99.90;;;;;;5078757;28;20040;-80
2022/12/07 06:36:44;;;;;;;7.28;1.33;;;2.10;99.90;;;;;;5080752;28;20050;-80
2022/12/07 06:39:10;;;;;;;6.25;1.40;;;2.00;99.90;;;;;;5085740;28;20036;-81
2022/12/07 06:41:36;;;;;;;6.53;0.98;;;1.90;99.90;;;;;;5067808;28;20391;-81
2022/12/07 06:44:03;;;;;;;11.88;1.83;;;1.90;99.90;;;;;;5072963;28;20036;-80
2022/12/07 06:46:29;;;;;;;7.57;1.15;;;1.90;99.90;;;;;;5086507;28;20058;-81
2022/12/07 06:48:55;;;;;;;10.75;1.52;;;1.90;99.90;;;;;;5068212;28;20136;-80
2022/12/07 06:51:21;;;;;;;8.30;1.27;;;1.90;99.90;;;;;;5064387;28;20059;-79
2022/12/07 06:53:46;;;;;;;9.85;1.70;;;2.00;99.90;;;;;;5083746;28;20044;-78
2022/12/07 06:56:12;;;;;;;11.88;1.98;;;2.10;99.90;;;;;;5064153;28;20043;-77
2022/12/07 06:58:38;;;;;;;11.93;1.90;;;2.10;99.90;;;;;;5084193;28;20058;-78
2022/12/07 07:01:10;;;;;;;7.45;1.30;;;2.30;99.90;;;;;;5090711;28;20052;-81
2022/12/07 07:03:36;;;;;;;9.35;1.38;;;2.30;99.90;;;;;;5089662;28;20047;-79
2022/12/07 07:06:02;;;;;;;10.40;1.48;;;2.40;99.90;;;;;;5072270;28;20123;-77
2022/12/07 07:08:27;;;;;;;5.97;1.52;;;2.50;99.90;;;;;;5065721;28;20131;-78
2022/12/07 07:10:53;;;;;;;9.52;1.38;;;2.50;99.90;;;;;;5084298;28;20054;-77
2022/12/07 07:13:19;;;;;;;7.78;1.60;;;2.60;99.90;;;;;;5083935;28;20040;-77
2022/12/07 07:15:44;;;;;;;7.53;1.42;;;2.50;99.90;;;;;;5066875;28;20044;-76
2022/12/07 07:18:10;;;;;;;9.80;1.30;;;2.50;99.90;;;;;;5066623;28;20135;-77
2022/12/07 07:20:36;;;;;;;9.10;1.58;;;2.50;99.90;;;;;;5083766;28;20036;-77
2022/12/07 07:23:02;;;;;;;6.78;2.05;;;2.50;99.90;;;;;;5085345;28;20036;-77
2022/12/07 07:25:28;;;;;;;6.40;1.25;;;2.40;99.90;;;;;;5083646;28;20982;-77
2022/12/07 07:27:54;;;;;;;13.32;2.15;;;2.40;99.90;;;;;;5053781;28;20051;-77
2022/12/07 07:30:20;;;;;;;10.55;1.70;;;2.40;99.90;;;;;;5085147;28;20490;-77
2022/12/07 07:32:46;;;;;;;6.50;1.20;;;2.40;99.90;;;;;;5075081;28;20071;-77
2022/12/07 07:35:13;;;;;;;11.73;1.30;;;2.40;99.90;;;;;;5086344;28;20478;-77
2022/12/07 07:37:40;;;;;;;6.60;1.63;;;2.50;99.90;;;;;;5066990;28;20040;-77
2022/12/07 07:40:07;;;;;;;12.40;1.25;;;2.50;99.90;;;;;;5087493;28;20082;-77
2022/12/07 07:42:33;;;;;;;7.38;1.73;;;2.60;99.90;;;;;;5085802;28;20043;-77
2022/12/07 07:44:59;;;;;;;9.25;1.50;;;2.70;99.90;;;;;;5065096;28;20410;-74
2022/12/07 07:47:24;;;;;;;9.93;1.77;;;2.70;99.90;;;;;;5068415;28;20453;-78
2022/12/07 07:49:50;;;;;;;11.70;1.90;;;2.80;99.90;;;;;;5053700;28;20059;-78
2022/12/07 07:52:16;;;;;;;10.50;1.80;;;2.80;99.90;;;;;;5071657;28;20044;-78
2022/12/07 07:54:42;;;;;;;9.00;1.52;;;2.90;99.90;;;;;;5087366;28;20058;-77
2022/12/07 07:57:08;;;;;;;9.52;1.70;;;;;;;;;;5087521;28;20086;-77
2022/12/07 07:59:33;;;;;;;5.38;1.38;;;2.90;99.90;;;;;;5070547;28;20046;-78
2022/12/07 08:01:59;;;;;;;7.18;1.73;;;2.90;99.90;;;;;;5067891;28;20131;-78
2022/12/07 08:04:27;;;;;;;12.65;1.70;;;2.80;99.90;;;;;;5070313;28;20647;-78
2022/12/07 08:06:52;;;;;;;10.63;1.80;;;2.90;99.90;;;;;;5088936;28;20048;-78
2022/12/07 08:09:18;;;;;;;8.20;1.40;;;2.80;99.90;;;;;;5067060;28;20425;-77
2022/12/07 08:11:45;;;;;;;8.57;1.23;;;2.80;99.90;;;;;;5059774;28;20036;-78
2022/12/07 08:14:11;;;;;;;9.63;1.60;;;2.70;99.90;;;;;;5090986;28;20119;-78
2022/12/07 08:16:37;;;;;;;11.60;2.08;;;2.70;99.90;;;;;;5090241;28;20079;-78
2022/12/07 08:19:05;;;;;;;6.72;1.40;;;2.80;99.90;;;;;;5093174;28;20717;-78
2022/12/07 08:21:30;;;;;;;5.18;1.65;;;2.80;99.90;;;;;;5089754;28;20050;-78
2022/12/07 08:23:57;;;;;;;8.43;1.70;;;3.00;99.90;;;;;;5087371;28;20048;-78
2022/12/07 08:26:23;;;;;;;5.97;1.45;;;3.00;99.90;;;;;;5089426;28;20048;-78
2022/12/07 08:28:48;;;;;;;8.13;1.83;;;3.10;99.90;;;;;;5096558;28;20043;-78
2022/12/07 08:31:17;;;;;;;10.95;1.52;;;3.10;99.90;;;;;;5088721;28;20189;-79
2022/12/07 08:33:45;;;;;;;8.15;1.98;;;3.20;99.90;;;;;;5072433;28;21282;-77
2022/12/07 08:36:13;;;;;;;10.00;2.15;;;3.20;99.90;;;;;;5067369;28;20481;-78
2022/12/07 08:38:40;;;;;;;9.77;1.90;;;3.30;99.90;;;;;;5068371;28;20044;-78
2022/12/07 08:41:07;;;;;;;9.05;1.67;;;3.30;99.90;;;;;;5073853;28;20032;-78
2022/12/07 08:43:34;;;;;;;6.25;1.63;;;3.40;99.90;;;;;;5091111;28;20040;-78
2022/12/07 08:46:05;;;;;;;11.32;1.75;;;3.40;99.90;;;;;;5090201;28;20505;-78
2022/12/07 08:48:34;;;;;;;4.60;1.45;;;3.40;99.90;;;;;;5089541;28;20084;-79
2022/12/07 08:51:02;;;;;;;7.07;1.38;;;3.50;99.90;;;;;;5091460;28;20074;-79
2022/12/07 08:53:29;;;;;;;7.93;1.60;;;3.40;99.90;;;;;;5075047;28;20120;-79
2022/12/07 08:55:56;;;;;;;5.93;1.65;;;3.40;99.90;;;;;;5087752;28;20043;-77
2022/12/07 08:58:22;;;;;;;4.75;1.33;;;3.30;99.90;;;;;;5083906;28;20405;-77
2022/12/07 09:00:48;;;;;;;5.97;1.42;;;3.30;99.90;;;;;;5083332;28;20044;-77
2022/12/07 09:03:13;;;;;;;11.25;1.65;;;3.20;99.90;;;;;;5072161;28;20040;-77
2022/12/07 09:05:39;;;;;;;5.60;1.17;;;3.20;99.90;;;;;;5092314;28;20038;-77
2022/12/07 09:08:06;;;;;;;10.40;1.25;;;3.20;99.90;;;;;;5092989;28;20036;-77
2022/12/07 09:10:31;;;;;;;6.25;1.65;;;3.10;99.90;;;;;;5089395;28;20040;-78
2022/12/07 09:13:00;;;;;;;6.10;1.58;;;3.20;99.90;;;;;;5085746;28;20698;-77
2022/12/07 09:15:27;;;;;;;7.22;1.60;;;3.10;99.90;;;;;;5069184;28;20046;-78
2022/12/07 09:17:53;;;;;;;7.50;1.30;;;3.20;99.90;;;;;;5086237;28;20051;-78
2022/12/07 09:20:19;;;;;;;5.57;1.55;;;3.20;99.90;;;;;;5066371;28;20045;-78
2022/12/07 09:22:44;;;;;;;7.88;1.38;;;3.40;99.90;;;;;;5085288;28;20051;-78
2022/12/07 09:25:10;;;;;;;7.13;1.77;;;3.50;99.90;;;;;;5069226;28;20039;-78
2022/12/07 09:27:35;;;;;;;7.05;1.50;;;3.60;99.90;;;;;;5082145;28;20121;-78
2022/12/07 09:30:01;;;;;;;7.72;1.83;;;3.70;99.90;;;;;;5085858;28;20047;-78
2022/12/07 09:32:27;;;;;;;8.48;1.92;;;3.70;99.90;;;;;;5084932;28;20092;-78
2022/12/07 09:34:53;;;;;;;7.40;2.67;;;3.80;99.90;;;;;;5081844;28;20048;-78
2022/12/07 09:37:19;;;;;;;8.55;1.88;;;3.90;99.90;;;;;;5085436;28;20036;-78
2022/12/07 09:39:45;;;;;;;8.45;2.00;;;3.90;99.90;;;;;;5091740;28;20036;-78
2022/12/07 09:42:39;;;;;;;6.60;1.55;;;4.00;99.90;;;;;;5086718;28;20044;-78
2022/12/07 09:45:07;;;;;;;8.43;1.80;;;3.90;99.90;;;;;;5085936;28;20051;-78
2022/12/07 09:47:36;;;;;;;9.23;1.60;;;4.00;99.90;;;;;;5070763;28;20375;-78
2022/12/07 09:50:12;;;;;;;7.47;1.40;;;4.00;99.90;;;;;;5092480;28;20092;-78
2022/12/07 09:52:38;;;;;;;7.15;1.45;;;4.00;99.90;;;;;;5091989;28;20092;-78
2022/12/07 09:55:09;;;;;;;7.57;1.60;;;4.00;99.90;;;;;;5094015;28;20162;-78
2022/12/07 09:57:36;;;;;;;7.30;1.30;;;4.00;99.90;;;;;;5076670;28;20511;-78
2022/12/07 10:00:07;;;;;;;9.25;1.85;;;3.90;99.90;;;;;;5067610;28;20099;-78
2022/12/07 10:02:39;;;;;;;6.70;1.45;;;3.90;99.90;;;;;;5091828;28;20036;-78
2022/12/07 10:05:07;;;;;;;5.65;1.52;;;3.90;99.90;;;;;;5088065;28;21406;-79
2022/12/07 10:07:33;;;;;;;6.47;1.48;;;4.00;99.90;;;;;;5091653;28;20513;-78
2022/12/07 10:09:59;;;;;;;6.50;1.38;;;4.10;99.90;;;;;;5091459;28;20040;-78
2022/12/07 10:12:24;;;;;;;9.38;1.80;;;4.20;99.90;;;;;;5092353;28;20360;-78
2022/12/07 10:14:55;;;;;;;6.63;1.58;;;4.30;99.90;;;;;;5054473;28;20138;-78
2022/12/07 10:17:33;;;;;;;6.63;1.77;;;;;;;;;;5070788;28;20055;-78
2022/12/07 10:20:26;;;;;;;5.55;1.40;;;4.60;99.90;;;;;;5090723;28;20075;-78
2022/12/07 10:23:04;;;;;;;8.48;1.73;;;4.70;99.90;;;;;;5063468;28;20048;-78
2022/12/07 10:25:34;;;;;;;;;;;5.00;99.90;;;;;;5094420;28;20050;-78
2022/12/07 10:28:03;;;;;;;10.10;1.80;;;5.20;99.90;;;;;;5095494;28;19926;-78
2022/12/07 10:30:31;;;;;;;10.13;2.00;;;5.30;99.90;;;;;;5090191;28;20070;-78
2022/12/07 10:32:56;;;;;;;;;;;5.40;99.90;;;;;;5075305;28;20409;-77
2022/12/07 10:35:28;;;;;;;7.00;1.55;;;5.40;99.90;;;;;;5086023;28;19920;-78
2022/12/07 10:37:57;;;;;;;8.45;1.83;;;5.50;99.90;;;;;;5089491;28;20072;-78
2022/12/07 10:40:30;;;;;;;6.78;1.42;;;5.60;99.90;;;;;;5086306;28;20032;-78
2022/12/07 10:43:04;;;;;;;11.23;2.22;;;5.70;99.90;;;;;;5088719;28;20074;-78
2022/12/07 10:45:30;;;;;;;7.28;1.80;;;5.60;99.90;;;;;;5071857;28;20044;-78
2022/12/07 10:48:12;;;;;;;7.13;1.65;;;5.60;99.90;;;;;;5074893;28;20069;-78
2022/12/07 10:51:02;;;;;;;10.40;1.85;;;5.70;99.90;;;;;;5069187;28;20048;-78
2022/12/07 10:53:40;;;;;;;8.60;1.63;;;5.70;99.90;;;;;;5068413;28;20059;-78
2022/12/07 10:56:29;;;;;;;7.57;1.67;;;5.70;99.90;;;;;;5072611;28;20101;-77
2022/12/07 10:59:04;;;;;;;6.95;1.40;;;5.80;99.90;;;;;;5070771;28;20119;-79
2022/12/07 11:01:46;;;;;;;6.88;1.60;;;5.80;99.90;;;;;;5084282;28;20040;-77
2022/12/07 11:04:30;;;;;;;13.77;2.17;;;5.90;99.90;;;;;;5086033;28;20514;-78
2022/12/07 11:07:06;;;;;;;7.45;1.80;;;5.90;99.90;;;;;;5081895;28;20119;-78
2022/12/07 11:09:57;;;;;;;11.98;2.17;;;5.90;99.90;;;;;;5093294;28;20059;-79
2022/12/07 11:12:44;;;;;;;7.55;1.45;;;6.00;99.90;;;;;;5059989;28;20055;-78
2022/12/07 11:15:26;;;;;;;8.57;1.80;;;6.00;99.90;;;;;;5091014;28;20036;-79
2022/12/07 11:18:08;;;;;;;7.80;1.65;;;6.10;99.90;;;;;;5067817;28;20040;-78
2022/12/07 11:20:44;;;;;;;6.97;1.50;;;6.30;99.90;;;;;;5084683;28;20044;-79
2022/12/07 11:23:13;;;;;;;7.70;1.80;;;6.40;99.90;;;;;;5085307;28;20044;-79
2022/12/07 11:26:02;;;;;;;6.07;1.55;;;6.60;99.90;;;;;;5066552;28;20044;-78
2022/12/07 11:28:31;;;;;;;6.05;1.48;;;6.60;99.90;;;;;;5081391;28;20051;-78
2022/12/07 11:31:11;;;;;;;6.05;1.52;;;6.60;99.90;;;;;;5082858;28;20051;-78
2022/12/07 11:33:45;;;;;;;5.20;1.40;;;6.50;99.90;;;;;;5084211;28;20044;-78
2022/12/07 11:36:17;;;;;;;4.93;1.40;;;6.50;99.90;;;;;;5069332;28;20054;-78
2022/12/07 11:38:50;;;;;;;4.70;1.67;;;6.40;99.90;;;;;;5069795;28;20044;-79
2022/12/07 11:41:23;;;;;;;6.53;1.45;;;6.40;99.90;;;;;;5091414;28;20553;-78
2022/12/07 11:44:23;;;;;;;7.22;1.27;;;6.30;99.90;;;;;;5092585;28;20546;-79
2022/12/07 11:46:57;;;;;;;4.15;1.02;;;6.30;99.90;;;;;;5088938;28;20040;-78
2022/12/07 11:49:38;;;;;;;4.75;1.60;;;6.30;99.90;;;;;;5070764;28;20397;-78
2022/12/07 11:52:09;;;;;;;9.55;1.80;;;6.20;99.90;;;;;;5085396;28;20126;-76
2022/12/07 11:54:40;;;;;;;10.40;1.88;;;6.20;99.90;;;;;;5084520;28;20039;-78
2022/12/07 11:57:18;;;;;;;4.65;1.35;;;6.10;99.90;;;;;;5065716;28;20084;-77
2022/12/07 11:59:54;;;;;;;4.00;1.10;;;6.10;99.90;;;;;;5085321;28;20040;-78
2022/12/07 12:02:32;;;;;;;10.00;1.63;;;6.10;99.90;;;;;;5086890;28;20099;-78
2022/12/07 12:05:21;;;;;;;7.65;1.52;;;6.10;99.90;;;;;;5093990;28;20119;-78
2022/12/07 12:07:55;;;;;;;11.05;1.60;;;6.10;99.90;;;;;;5091854;28;20036;-77
2022/12/07 12:10:48;;;;;;;8.85;1.30;;;6.10;99.90;;;;;;5073216;28;20513;-78
2022/12/07 12:13:30;;;;;;;8.75;1.85;;;6.20;99.90;;;;;;5091447;28;20044;-77
2022/12/07 12:16:12;;;;;;;9.63;1.88;;;6.20;99.90;;;;;;5070022;28;20093;-78
2022/12/07 12:18:50;;;;;;;8.32;1.60;;;6.20;99.90;;;;;;5093878;28;20048;-79
2022/12/07 12:21:17;;;;;;;;;;;6.30;99.90;;;;;;5092323;28;20129;-79
2022/12/07 12:23:56;;;;;;;7.90;1.40;;;6.40;99.90;;;;;;5097422;28;19920;-79
2022/12/07 12:26:25;;;;;;;4.25;1.42;;;6.40;99.90;;;;;;5087887;28;20067;-79
2022/12/07 12:28:59;;;;;;;6.97;1.30;;;6.50;99.90;;;;;;5070097;28;21810;-79
2022/12/07 12:31:27;;;;;;;8.95;1.65;;;6.60;99.90;;;;;;5086060;28;20044;-78
2022/12/07 12:34:01;;;;;;;7.18;1.50;;;6.70;99.90;;;;;;5090603;28;20082;-79
2022/12/07 12:36:26;;;;;;;6.78;1.42;;;6.70;99.90;;;;;;5090273;28;20924;-79
2022/12/07 12:38:58;;;;;;;5.28;1.35;;;6.60;99.90;;;;;;5089152;28;20036;-77
2022/12/07 12:42:05;;;;;;;6.65;1.42;;;6.60;99.90;;;;;;5086952;28;20116;-77
2022/12/07 12:44:33;;;;;;;11.40;1.58;;;6.50;99.90;;;;;;5069127;28;20069;-78
2022/12/07 12:47:21;;;;;;;8.23;1.40;;;6.50;99.90;;;;;;5055715;28;20071;-79
2022/12/07 12:50:16;;;;;;;8.88;1.45;;;6.60;99.90;;;;;;5077239;28;20555;-79
2022/12/07 12:52:41;;;;;;;8.70;1.50;;;6.50;99.90;;;;;;5068109;28;20408;-79
2022/12/07 12:55:07;;;;;;;9.43;1.73;;;6.60;99.90;;;;;;5057670;28;20123;-78
2022/12/07 12:57:33;;;;;;;10.27;2.33;;;6.50;99.90;;;;;;5075657;28;20056;-78
2022/12/07 13:00:03;;;;;;;10.55;1.60;;;6.40;99.90;;;;;;5075929;28;20044;-79
2022/12/07 13:02:36;;;;;;;10.15;1.85;;;6.50;99.90;;;;;;5074530;28;20052;-79
2022/12/07 13:05:09;;;;;;;4.53;1.60;;;6.40;99.90;;;;;;5075056;28;20036;-79
2022/12/07 13:07:47;;;;;;;11.00;1.60;;;6.40;99.90;;;;;;5074847;28;20052;-79
2022/12/07 13:10:28;;;;;;;10.10;1.88;;;6.40;99.90;;;;;;5072874;28;20094;-78
2022/12/07 13:13:11;;;;;;;8.98;1.80;;;6.40;99.90;;;;;;5073695;28;20131;-78
2022/12/07 13:15:39;;;;;;;5.00;1.38;;;6.40;99.90;;;;;;5074506;28;20082;-78
2022/12/07 13:18:07;;;;;;;6.25;1.48;;;6.40;99.90;;;;;;5039584;28;20052;-78